createdAt,value
2023-12-14T00:02:24.638Z,98827.41
2023-12-14T00:04:53.606Z,98825.66
2023-12-14T00:07:21.941Z,98823.94
2023-12-14T00:09:53.624Z,98822.16
2023-12-14T00:12:21.892Z,98822.22
2023-12-14T00:14:50.060Z,98829.94
2023-12-14T00:17:19.093Z,98832.59
2023-12-14T00:19:50.130Z,98835.22
2023-12-14T00:22:18.661Z,98837.00
2023-12-14T00:24:46.910Z,98838.97
2023-12-14T00:27:15.640Z,98850.16
2023-12-14T00:29:44.432Z,98848.44
2023-12-14T00:32:12.873Z,98853.72
2023-12-14T00:34:41.613Z,98859.78
2023-12-14T00:37:11.464Z,98865.00
2023-12-14T00:39:39.939Z,98875.28
2023-12-14T00:42:09.361Z,98871.78
2023-12-14T00:44:37.637Z,98875.28
2023-12-14T00:47:06.507Z,98880.47
2023-12-14T00:49:35.327Z,98883.88
2023-12-14T00:52:03.732Z,98889.91
2023-12-14T00:54:33.887Z,98886.53
2023-12-14T00:57:02.831Z,98889.06
2023-12-14T00:59:32.138Z,98890.69
2023-12-14T01:02:01.008Z,98887.13
2023-12-14T01:04:29.946Z,98883.81
2023-12-14T01:06:58.892Z,98880.31
2023-12-14T01:09:27.719Z,98882.00
2023-12-14T01:11:57.928Z,98873.44
2023-12-14T01:14:29.385Z,98881.19
2023-12-14T01:16:58.150Z,98877.72
2023-12-14T01:19:28.878Z,98884.69
2023-12-14T01:21:57.628Z,98890.69
2023-12-14T01:24:26.355Z,98883.81
2023-12-14T01:26:54.828Z,98886.47
2023-12-14T01:29:24.674Z,98889.88
2023-12-14T01:31:53.366Z,98884.72
2023-12-14T01:34:21.840Z,98884.72
2023-12-14T01:36:50.428Z,98883.06
2023-12-14T01:39:18.698Z,98882.19
2023-12-14T01:41:47.239Z,98881.41
2023-12-14T01:44:16.338Z,98881.28
2023-12-14T01:46:46.082Z,98878.63
2023-12-14T01:49:14.635Z,98876.97
2023-12-14T01:51:43.123Z,98883.81
2023-12-14T01:54:12.236Z,98890.69
2023-12-14T01:56:41.473Z,98897.47
2023-12-14T01:59:09.958Z,98896.69
2023-12-14T02:01:46.661Z,98895.84
2023-12-14T02:04:21.926Z,98898.31
2023-12-14T02:06:52.024Z,98899.81
2023-12-14T02:09:20.627Z,98897.22
2023-12-14T02:11:49.198Z,98896.34
2023-12-14T02:14:17.843Z,98900.63
2023-12-14T02:16:56.056Z,98897.38
2023-12-14T02:19:24.582Z,98894.09
2023-12-14T02:21:53.056Z,98894.59
2023-12-14T02:24:23.192Z,98890.34
2023-12-14T02:27:02.339Z,98893.09
2023-12-14T02:29:32.831Z,98890.59
2023-12-14T02:32:01.831Z,98894.91
2023-12-14T02:34:30.234Z,98902.66
2023-12-14T02:36:58.720Z,98894.88
2023-12-14T02:39:28.575Z,98892.28
2023-12-14T02:41:56.865Z,98894.09
2023-12-14T02:44:25.386Z,98900.97
2023-12-14T02:46:54.059Z,98900.06
2023-12-14T02:49:23.102Z,98901.06
2023-12-14T02:51:51.667Z,98895.88
2023-12-14T02:54:19.969Z,98901.94
2023-12-14T02:56:54.261Z,98892.47
2023-12-14T02:59:25.533Z,98901.06
2023-12-14T03:01:53.983Z,98898.53
2023-12-14T03:04:22.481Z,98896.75
2023-12-14T03:06:51.121Z,98906.25
2023-12-14T03:09:20.184Z,98908.84
2023-12-14T03:11:48.891Z,98907.13
2023-12-14T03:14:18.781Z,98903.59
2023-12-14T03:16:49.630Z,98910.53
2023-12-14T03:19:18.475Z,98916.56
2023-12-14T03:21:47.018Z,98911.44
2023-12-14T03:24:15.535Z,98928.69
2023-12-14T03:26:44.702Z,98931.22
2023-12-14T03:29:13.460Z,98932.81
2023-12-14T03:31:44.696Z,98933.88
2023-12-14T03:34:14.437Z,98942.47
2023-12-14T03:36:43.364Z,98939.91
2023-12-14T03:39:12.465Z,98940.88
2023-12-14T03:41:43.293Z,98941.91
2023-12-14T03:44:11.946Z,98942.69
2023-12-14T03:46:40.312Z,98958.31
2023-12-14T03:49:11.966Z,98959.28
2023-12-14T03:51:40.749Z,98958.59
2023-12-14T03:54:09.032Z,98961.19
2023-12-14T03:56:37.617Z,98956.84
2023-12-14T03:59:06.040Z,98968.91
2023-12-14T04:01:34.783Z,98968.28
2023-12-14T04:04:03.305Z,98971.66
2023-12-14T04:06:33.114Z,98977.53
2023-12-14T04:09:01.468Z,98975.66
2023-12-14T04:11:29.817Z,98973.00
2023-12-14T04:13:58.714Z,98969.50
2023-12-14T04:16:27.036Z,98982.56
2023-12-14T04:18:55.538Z,98986.94
2023-12-14T04:21:23.920Z,98987.00
2023-12-14T04:23:53.772Z,98986.84
2023-12-14T04:26:22.379Z,98990.34
2023-12-14T04:28:51.886Z,98996.50
2023-12-14T04:31:20.397Z,99002.50
2023-12-14T04:33:49.934Z,98997.28
2023-12-14T04:36:18.363Z,98999.91
2023-12-14T04:38:47.753Z,99002.50
2023-12-14T04:41:19.903Z,99005.09
2023-12-14T04:43:48.780Z,99008.59
2023-12-14T04:46:17.124Z,99005.22
2023-12-14T04:48:45.823Z,99009.66
2023-12-14T04:51:15.210Z,99006.38
2023-12-14T04:53:43.838Z,99012.44
2023-12-14T04:56:13.638Z,99015.94
2023-12-14T04:58:43.966Z,99024.50
2023-12-14T05:01:14.167Z,99027.84
2023-12-14T05:03:42.912Z,99032.25
2023-12-14T05:06:14.230Z,99032.41
2023-12-14T05:08:45.430Z,99032.53
2023-12-14T05:11:15.004Z,99036.81
2023-12-14T05:13:44.757Z,99043.13
2023-12-14T05:16:17.077Z,99040.53
2023-12-14T05:18:45.914Z,99044.94
2023-12-14T05:21:18.942Z,99046.63
2023-12-14T05:23:47.577Z,99051.91
2023-12-14T05:26:15.865Z,99054.41
2023-12-14T05:28:45.949Z,99057.81
2023-12-14T05:31:14.604Z,99067.47
2023-12-14T05:33:43.092Z,99070.94
2023-12-14T05:36:12.141Z,99073.59
2023-12-14T05:38:42.231Z,99080.56
2023-12-14T05:41:14.011Z,99089.19
2023-12-14T05:43:43.138Z,99078.00
2023-12-14T05:46:25.882Z,99084.16
2023-12-14T05:48:57.605Z,99088.38
2023-12-14T05:51:29.963Z,99093.47
2023-12-14T05:53:58.688Z,99097.75
2023-12-14T05:56:28.068Z,99101.34
2023-12-14T05:58:57.071Z,99099.59
2023-12-14T06:01:27.259Z,99109.94
2023-12-14T06:03:56.310Z,99112.63
2023-12-14T06:06:25.014Z,99114.31
2023-12-14T06:08:53.873Z,99114.31
2023-12-14T06:11:22.386Z,99123.00
2023-12-14T06:13:51.458Z,99119.59
2023-12-14T06:16:21.660Z,99130.97
2023-12-14T06:18:51.929Z,99131.91
2023-12-14T06:21:20.448Z,99131.06
2023-12-14T06:23:52.304Z,99141.44
2023-12-14T06:26:20.854Z,99144.09
2023-12-14T06:28:52.431Z,99148.53
2023-12-14T06:31:22.855Z,99156.28
2023-12-14T06:33:55.027Z,99146.91
2023-12-14T06:36:28.029Z,99161.66
2023-12-14T06:38:56.820Z,99169.66
2023-12-14T06:41:28.527Z,99171.22
2023-12-14T06:43:58.070Z,99163.44
2023-12-14T06:46:26.924Z,99163.44
2023-12-14T06:48:57.056Z,99167.78
2023-12-14T06:51:25.734Z,99162.56
2023-12-14T06:53:55.692Z,99179.88
2023-12-14T06:56:24.386Z,99183.28
2023-12-14T06:58:57.789Z,99172.84
2023-12-14T07:01:29.338Z,99173.78
2023-12-14T07:03:59.346Z,99175.59
2023-12-14T07:06:28.189Z,99179.03
2023-12-14T07:08:57.542Z,99190.28
2023-12-14T07:11:26.433Z,99185.16
2023-12-14T07:13:54.825Z,99187.03
2023-12-14T07:16:27.255Z,99187.97
2023-12-14T07:19:02.819Z,99189.75
2023-12-14T07:21:31.647Z,99187.19
2023-12-14T07:24:00.813Z,99188.91
2023-12-14T07:26:29.603Z,99188.91
2023-12-14T07:28:59.760Z,99188.13
2023-12-14T07:31:29.613Z,99200.09
2023-12-14T07:34:00.858Z,99196.59
2023-12-14T07:36:29.767Z,99193.97
2023-12-14T07:38:58.809Z,99202.72
2023-12-14T07:41:31.007Z,99203.72
2023-12-14T07:44:06.298Z,99207.06
2023-12-14T07:46:37.634Z,99208.09
2023-12-14T07:49:08.148Z,99208.09
2023-12-14T07:51:39.355Z,99223.50
2023-12-14T07:54:11.107Z,99223.47
2023-12-14T07:56:39.936Z,99223.41
2023-12-14T07:59:09.178Z,99229.31
2023-12-14T08:01:39.016Z,99232.81
2023-12-14T08:04:16.070Z,99243.09
2023-12-14T08:06:44.708Z,99240.47
2023-12-14T08:09:13.439Z,99248.25
2023-12-14T08:11:41.938Z,99248.19
2023-12-14T08:14:11.223Z,99245.69
2023-12-14T08:16:39.924Z,99244.81
2023-12-14T08:19:12.355Z,99251.66
2023-12-14T08:21:44.744Z,99256.72
2023-12-14T08:24:13.468Z,99250.78
2023-12-14T08:26:42.073Z,99254.31
2023-12-14T08:29:15.615Z,99262.97
2023-12-14T08:31:47.567Z,99260.44
2023-12-14T08:34:17.844Z,99257.84
2023-12-14T08:36:46.586Z,99271.66
2023-12-14T08:39:15.245Z,99267.25
2023-12-14T08:41:46.085Z,99265.66
2023-12-14T08:44:16.153Z,99270.88
2023-12-14T08:46:47.069Z,99276.94
2023-12-14T08:49:18.259Z,99277.78
2023-12-14T08:51:47.043Z,99282.91
2023-12-14T08:54:15.718Z,99288.94
2023-12-14T08:56:44.573Z,99290.78
2023-12-14T08:59:13.797Z,99289.03
2023-12-14T09:01:42.662Z,99299.34
2023-12-14T09:04:11.420Z,99309.63
2023-12-14T09:06:43.470Z,99307.09
2023-12-14T09:09:15.179Z,99306.06
2023-12-14T09:11:43.976Z,99309.47
2023-12-14T09:14:12.686Z,99309.28
2023-12-14T09:16:41.761Z,99311.03
2023-12-14T09:19:10.677Z,99322.22
2023-12-14T09:21:46.749Z,99322.31
2023-12-14T09:24:15.846Z,99327.53
2023-12-14T09:26:44.808Z,99331.78
2023-12-14T09:29:13.856Z,99333.47
2023-12-14T09:31:44.955Z,99333.44
2023-12-14T09:34:14.071Z,99346.41
2023-12-14T09:36:44.279Z,99343.88
2023-12-14T09:39:13.678Z,99332.53
2023-12-14T09:41:42.597Z,99344.59
2023-12-14T09:44:12.070Z,99343.81
2023-12-14T09:46:45.914Z,99349.94
2023-12-14T09:49:16.340Z,99348.28
2023-12-14T09:51:48.215Z,99347.47
2023-12-14T09:54:16.550Z,99352.75
2023-12-14T09:56:49.455Z,99358.88
2023-12-14T09:59:20.449Z,99361.44
2023-12-14T10:01:49.122Z,99357.94
2023-12-14T10:04:21.375Z,99371.66
2023-12-14T10:06:51.410Z,99368.16
2023-12-14T10:09:28.410Z,99375.13
2023-12-14T10:12:06.805Z,99390.53
2023-12-14T10:14:36.319Z,99392.31
2023-12-14T10:17:19.069Z,99396.53
2023-12-14T10:19:49.158Z,99394.81
2023-12-14T10:22:19.984Z,99393.03
2023-12-14T10:24:49.851Z,99396.53
2023-12-14T10:27:19.197Z,99392.28
2023-12-14T10:29:48.539Z,99395.66
2023-12-14T10:32:17.368Z,99406.00
2023-12-14T10:34:46.443Z,99396.53
2023-12-14T10:37:16.709Z,99399.16
2023-12-14T10:39:50.033Z,99397.41
2023-12-14T10:42:21.651Z,99403.41
2023-12-14T10:47:29.173Z,99402.69
2023-12-14T10:49:59.244Z,99401.00
2023-12-14T10:52:28.484Z,99395.75
2023-12-14T10:55:03.652Z,99399.06
2023-12-14T10:57:33.692Z,99406.78
2023-12-14T11:00:02.589Z,99406.78
2023-12-14T11:02:33.177Z,99408.56
2023-12-14T11:05:07.292Z,99408.59
2023-12-14T11:07:46.894Z,99420.66
2023-12-14T11:10:18.048Z,99416.41
2023-12-14T11:13:02.406Z,99422.44
2023-12-14T11:15:39.207Z,99427.63
2023-12-14T11:18:30.773Z,99427.66
2023-12-14T11:21:02.290Z,99424.22
2023-12-14T11:23:36.078Z,99422.34
2023-12-14T11:26:07.878Z,99430.97
2023-12-14T11:28:39.821Z,99437.81
2023-12-14T11:31:12.191Z,99436.03
2023-12-14T11:33:43.924Z,99436.03
2023-12-14T11:36:17.043Z,99434.25
2023-12-14T11:38:46.243Z,99437.75
2023-12-14T11:41:16.671Z,99436.91
2023-12-14T11:43:46.514Z,99439.53
2023-12-14T11:46:17.209Z,99446.47
2023-12-14T11:48:47.271Z,99445.47
2023-12-14T11:51:16.237Z,99453.31
2023-12-14T11:53:47.380Z,99447.28
2023-12-14T11:56:19.476Z,99458.56
2023-12-14T11:58:50.227Z,99457.81
2023-12-14T12:01:22.387Z,99450.88
2023-12-14T12:03:51.608Z,99462.16
2023-12-14T12:06:25.194Z,99458.78
2023-12-14T12:08:56.763Z,99469.97
2023-12-14T12:11:28.944Z,99471.72
2023-12-14T12:14:01.546Z,99474.28
2023-12-14T12:16:29.983Z,99469.19
2023-12-14T12:19:01.248Z,99483.97
2023-12-14T12:21:30.087Z,99474.31
2023-12-14T12:23:59.408Z,99475.97
2023-12-14T12:26:29.375Z,99483.78
2023-12-14T12:28:59.347Z,99487.28
2023-12-14T12:31:28.479Z,99488.22
2023-12-14T12:33:57.111Z,99485.66
2023-12-14T12:36:26.099Z,99491.59
2023-12-14T12:38:54.596Z,99494.09
2023-12-14T12:41:24.232Z,99489.84
2023-12-14T12:43:54.162Z,99494.88
2023-12-14T12:46:22.757Z,99504.28
2023-12-14T12:48:54.370Z,99505.16
2023-12-14T12:51:27.106Z,99506.03
2023-12-14T12:54:09.490Z,99502.63
2023-12-14T12:56:41.508Z,99509.66
2023-12-14T12:59:12.464Z,99507.16
2023-12-14T13:01:41.817Z,99512.44
2023-12-14T13:04:20.988Z,99506.38
2023-12-14T13:06:50.698Z,99511.59
2023-12-14T13:09:20.058Z,99521.06
2023-12-14T13:11:49.193Z,99514.19
2023-12-14T13:14:19.361Z,99520.28
2023-12-14T13:16:49.225Z,99521.97
2023-12-14T13:19:17.798Z,99519.31
2023-12-14T13:21:46.322Z,99521.91
2023-12-14T13:24:14.871Z,99527.84
2023-12-14T13:26:43.135Z,99531.34
2023-12-14T13:29:39.025Z,99525.41
2023-12-14T13:32:07.992Z,99534.94
2023-12-14T13:34:38.266Z,99530.63
2023-12-14T13:37:07.226Z,99542.72
2023-12-14T13:39:38.911Z,99546.16
2023-12-14T13:42:08.239Z,99547.00
2023-12-14T13:44:38.374Z,99557.38
2023-12-14T13:47:08.193Z,99557.47
2023-12-14T13:49:36.533Z,99558.38
2023-12-14T13:52:05.189Z,99565.22
2023-12-14T13:54:33.514Z,99565.97
2023-12-14T13:57:02.246Z,99574.63
2023-12-14T13:59:31.061Z,99580.66
2023-12-14T14:02:01.817Z,99581.53
2023-12-14T14:04:30.354Z,99586.69
2023-12-14T14:07:00.273Z,99590.09
2023-12-14T14:09:29.750Z,99596.25
2023-12-14T14:11:58.220Z,99597.97
2023-12-14T14:14:26.513Z,99607.50
2023-12-14T14:16:54.910Z,99607.66
2023-12-14T14:19:25.314Z,99618.84
2023-12-14T14:21:53.968Z,99611.19
2023-12-14T14:24:22.141Z,99617.13
2023-12-14T14:26:52.200Z,99620.66
2023-12-14T14:29:20.846Z,99628.44
2023-12-14T14:31:49.664Z,99623.31
2023-12-14T14:34:18.513Z,99628.56
2023-12-14T14:36:48.142Z,99627.69
2023-12-14T14:39:19.546Z,99635.53
2023-12-14T14:41:47.967Z,99633.91
2023-12-14T14:44:16.939Z,99647.75
2023-12-14T14:46:45.833Z,99651.06
2023-12-14T14:49:14.284Z,99650.25
2023-12-14T14:51:43.362Z,99655.47
2023-12-14T14:54:13.144Z,99658.06
2023-12-14T14:56:42.888Z,99664.94
2023-12-14T14:59:12.275Z,99669.19
2023-12-14T15:01:40.550Z,99665.72
2023-12-14T15:04:09.011Z,99670.88
2023-12-14T15:06:37.509Z,99682.16
2023-12-14T15:09:10.210Z,99682.97
2023-12-14T15:11:40.167Z,99680.34
2023-12-14T15:14:08.644Z,99689.81
2023-12-14T15:16:37.099Z,99703.63
2023-12-14T15:19:08.424Z,99697.59
2023-12-14T15:21:36.905Z,99707.13
2023-12-14T15:24:09.746Z,99701.13
2023-12-14T15:26:40.797Z,99701.06
2023-12-14T15:29:09.649Z,99703.72
2023-12-14T15:31:38.345Z,99706.34
2023-12-14T15:34:09.065Z,99707.16
2023-12-14T15:36:38.973Z,99711.50
2023-12-14T15:39:08.495Z,99716.69
2023-12-14T15:41:36.923Z,99720.13
2023-12-14T15:44:08.369Z,99715.78
2023-12-14T15:46:36.772Z,99731.34
2023-12-14T15:49:05.226Z,99728.81
2023-12-14T15:51:34.224Z,99736.66
2023-12-14T15:54:03.568Z,99734.91
2023-12-14T15:56:36.270Z,99739.31
2023-12-14T15:59:11.217Z,99748.00
2023-12-14T16:01:45.201Z,99755.81
2023-12-14T16:04:15.603Z,99755.81
2023-12-14T16:06:44.861Z,99756.66
2023-12-14T16:09:15.082Z,99766.91
2023-12-14T16:11:44.316Z,99769.53
2023-12-14T16:14:17.732Z,99777.38
2023-12-14T16:16:46.934Z,99776.47
2023-12-14T16:19:15.957Z,99782.47
2023-12-14T16:21:44.584Z,99787.69
2023-12-14T16:24:12.935Z,99786.88
2023-12-14T16:26:43.305Z,99790.31
2023-12-14T16:29:14.591Z,99785.22
2023-12-14T16:31:45.496Z,99794.75
2023-12-14T16:34:16.458Z,99802.47
2023-12-14T16:36:46.146Z,99804.97
2023-12-14T16:39:15.103Z,99810.16
2023-12-14T16:41:44.974Z,99815.34
2023-12-14T16:44:16.026Z,99818.75
2023-12-14T16:46:44.992Z,99817.03
2023-12-14T16:49:17.329Z,99824.00
2023-12-14T16:51:48.096Z,99816.25
2023-12-14T16:54:17.068Z,99823.25
2023-12-14T16:56:46.142Z,99821.50
2023-12-14T16:59:16.973Z,99822.34
2023-12-14T17:01:46.942Z,99830.13
2023-12-14T17:04:17.456Z,99834.44
2023-12-14T17:06:46.481Z,99839.63
2023-12-14T17:09:15.562Z,99838.81
2023-12-14T17:11:47.504Z,99845.75
2023-12-14T17:14:28.170Z,99855.19
2023-12-14T17:17:00.792Z,99854.34
2023-12-14T17:19:35.833Z,99850.91
2023-12-14T17:22:08.004Z,99853.50
2023-12-14T17:24:38.644Z,99860.38
2023-12-14T17:27:07.100Z,99853.53
2023-12-14T17:29:38.809Z,99857.88
2023-12-14T17:32:11.135Z,99860.44
2023-12-14T17:34:40.405Z,99871.66
2023-12-14T17:37:09.136Z,99863.06
2023-12-14T17:39:39.413Z,99871.66
2023-12-14T17:42:18.961Z,99876.00
2023-12-14T17:44:54.684Z,99876.91
2023-12-14T17:47:24.808Z,99881.22
2023-12-14T17:49:56.020Z,99875.16
2023-12-14T17:52:28.022Z,99876.91
2023-12-14T17:54:56.967Z,99891.56
2023-12-14T17:57:28.394Z,99889.88
2023-12-14T18:00:00.101Z,99892.50
2023-12-14T18:02:32.768Z,99896.75
2023-12-14T18:05:01.892Z,99904.53
2023-12-14T18:07:30.839Z,99901.94
2023-12-14T18:10:04.012Z,99908.00
2023-12-14T18:12:41.855Z,99913.19
2023-12-14T18:15:13.488Z,99909.72
2023-12-14T18:17:43.487Z,99923.53
2023-12-14T18:20:13.958Z,99916.59
2023-12-14T18:22:48.257Z,99929.56
2023-12-14T18:25:23.783Z,99934.78
2023-12-14T18:27:56.517Z,99930.44
2023-12-14T18:30:29.929Z,99938.25
2023-12-14T18:33:03.364Z,99940.00
2023-12-14T18:35:36.056Z,99948.59
2023-12-14T18:38:05.887Z,99956.34
2023-12-14T18:40:36.978Z,99949.44
2023-12-14T18:43:07.697Z,99964.09
2023-12-14T18:45:40.708Z,99961.56
2023-12-14T18:48:09.967Z,99971.00
2023-12-14T18:50:40.057Z,99970.09
2023-12-14T18:53:20.206Z,99971.78
2023-12-14T18:55:51.013Z,99978.72
2023-12-14T18:58:27.609Z,99989.09
2023-12-14T19:01:01.310Z,99988.19
2023-12-14T19:03:37.234Z,99983.91
2023-12-14T19:06:12.397Z,99989.97
2023-12-14T19:08:41.913Z,99998.59
2023-12-14T19:11:21.348Z,99996.00
2023-12-14T19:13:56.953Z,99996.06
2023-12-14T19:16:36.289Z,100005.47
2023-12-14T19:19:06.530Z,99997.69
2023-12-14T19:21:40.683Z,99996.00
2023-12-14T19:24:15.519Z,99996.84
2023-12-14T19:26:45.315Z,99998.56
2023-12-14T19:29:17.290Z,100008.03
2023-12-14T19:32:02.160Z,100014.97
2023-12-14T19:34:38.226Z,100015.78
2023-12-14T19:37:13.754Z,100015.78
2023-12-14T19:39:46.076Z,100022.63
2023-12-14T19:42:25.182Z,100029.53
2023-12-14T19:44:56.828Z,100028.69
2023-12-14T19:47:32.776Z,100030.41
2023-12-14T19:50:03.831Z,100036.47
2023-12-14T19:52:45.827Z,100039.06
2023-12-14T19:55:19.207Z,100045.09
2023-12-14T19:57:53.342Z,100051.16
2023-12-14T20:00:33.611Z,100049.44
2023-12-14T20:03:07.676Z,100061.53
2023-12-14T20:05:41.574Z,100058.03
2023-12-14T20:08:16.015Z,100068.41
2023-12-14T20:10:47.312Z,100064.91
2023-12-14T20:13:20.832Z,100066.66
2023-12-14T20:15:55.635Z,100062.38
2023-12-14T20:18:26.224Z,100069.28
2023-12-14T20:20:55.073Z,100065.81
2023-12-14T20:23:28.009Z,100068.41
2023-12-14T20:26:03.119Z,100073.66
2023-12-14T20:28:35.940Z,100074.53
2023-12-14T20:31:06.387Z,100078.00
2023-12-14T20:33:43.275Z,100081.44
2023-12-14T20:36:15.908Z,100080.56
2023-12-14T20:38:47.032Z,100084.84
2023-12-14T20:41:17.614Z,100083.16
2023-12-14T20:43:52.365Z,100090.94
2023-12-14T20:46:27.910Z,100095.28
2023-12-14T20:49:04.874Z,100092.72
2023-12-14T20:51:40.602Z,100096.19
2023-12-14T20:54:09.885Z,100103.97
2023-12-14T20:56:43.811Z,100109.16
2023-12-14T20:59:13.346Z,100110.88
2023-12-14T21:01:45.480Z,100116.06
2023-12-14T21:04:20.060Z,100115.22
2023-12-14T21:06:51.376Z,100114.34
2023-12-14T21:09:21.659Z,100123.00
2023-12-14T21:11:52.810Z,100114.31
2023-12-14T21:14:22.468Z,100114.25
2023-12-14T21:16:52.967Z,100132.38
2023-12-14T21:19:26.080Z,100132.41
2023-12-14T21:21:58.388Z,100134.19
2023-12-14T21:24:31.026Z,100142.84
2023-12-14T21:27:16.471Z,100143.72
2023-12-14T21:29:46.369Z,100152.34
2023-12-14T21:32:16.054Z,100151.50
2023-12-14T21:34:46.111Z,100159.31
2023-12-14T21:37:17.156Z,100164.53
2023-12-14T21:39:48.505Z,100171.50
2023-12-14T21:42:18.397Z,100169.81
2023-12-14T21:44:48.628Z,100175.00
2023-12-14T21:47:17.118Z,100179.34
2023-12-14T21:49:48.548Z,100181.16
2023-12-14T21:52:16.155Z,100191.50
2023-12-14T21:54:44.419Z,100193.22
2023-12-14T21:57:12.564Z,100188.94
2023-12-14T21:59:41.177Z,100183.75
2023-12-14T22:02:10.754Z,100197.59
2023-12-14T22:04:39.067Z,100203.66
2023-12-14T22:07:09.054Z,100207.97
2023-12-14T22:09:37.354Z,100214.03
2023-12-14T22:12:06.243Z,100221.81
2023-12-14T22:14:34.702Z,100219.28
2023-12-14T22:17:06.661Z,100221.03
2023-12-14T22:19:38.540Z,100229.69
2023-12-14T22:22:08.421Z,100228.84
2023-12-14T22:24:36.847Z,100237.47
2023-12-14T22:27:07.503Z,100239.22
2023-12-14T22:29:36.046Z,100237.50
2023-12-14T22:32:10.316Z,100247.88
2023-12-14T22:34:38.638Z,100256.50
2023-12-14T22:37:08.244Z,100258.22
2023-12-14T22:39:36.627Z,100263.47
2023-12-14T22:42:05.026Z,100269.47
2023-12-14T22:44:39.125Z,100271.25
2023-12-14T22:47:07.902Z,100270.34
2023-12-14T22:49:36.757Z,100268.63
2023-12-14T22:52:06.539Z,100274.63
2023-12-14T22:54:39.786Z,100285.00
2023-12-14T22:57:08.598Z,100289.31
2023-12-14T22:59:39.198Z,100288.47
2023-12-14T23:02:08.190Z,100291.06
2023-12-14T23:04:37.759Z,100287.59
2023-12-14T23:07:06.334Z,100288.47
2023-12-14T23:09:36.172Z,100284.19
2023-12-14T23:12:04.489Z,100288.53
2023-12-14T23:14:33.684Z,100298.91
2023-12-14T23:17:02.026Z,100301.50
2023-12-14T23:19:30.545Z,100294.63
2023-12-14T23:22:00.851Z,100296.31
2023-12-14T23:24:29.020Z,100299.78
2023-12-14T23:26:58.670Z,100298.09
2023-12-14T23:29:26.913Z,100301.56
2023-12-14T23:31:55.320Z,100302.47
2023-12-14T23:34:23.985Z,100315.41
2023-12-14T23:36:52.197Z,100317.19
2023-12-14T23:39:20.457Z,100315.53
2023-12-14T23:41:48.949Z,100321.53
2023-12-14T23:44:19.018Z,100325.88
2023-12-14T23:46:47.878Z,100322.41
2023-12-14T23:49:19.169Z,100329.34
2023-12-14T23:51:47.394Z,100328.47
2023-12-14T23:54:15.771Z,100336.22
2023-12-14T23:56:43.092Z,100335.34
2023-12-14T23:59:12.549Z,100333.63
